Time;durP1;ratioP1;P1;durP2;ratioP2;P2;SDS_P1;SDS_P2;PMS_P1;PMS_P2;Temp;Humidity;BMP_temperature;BMP_pressure;BME280_temperature;BME280_humidity;BME280_pressure;Samples;Min_cycle;Max_cycle;Signal;HPM_P1;HPM_P2
2021/12/26 00:01:02;;;;;;;6.80;3.00;;;-8.00;99.90;;;;;;5030865;28;20152;-75
2021/12/26 00:03:30;;;;;;;7.27;3.20;;;-7.90;99.90;;;;;;5047339;28;20076;-75
2021/12/26 00:05:58;;;;;;;6.97;3.67;;;-7.90;99.90;;;;;;5030439;28;20084;-72
2021/12/26 00:08:24;;;;;;;8.63;3.00;;;-7.90;99.90;;;;;;5047212;28;20104;-73
2021/12/26 00:10:50;;;;;;;9.27;3.07;;;-7.90;99.90;;;;;;5030444;28;20045;-72
2021/12/26 00:13:18;;;;;;;10.03;3.30;;;-7.90;99.90;;;;;;5030686;28;20471;-75
2021/12/26 00:15:44;;;;;;;5.37;2.57;;;-7.90;99.90;;;;;;5030488;28;20053;-75
2021/12/26 00:18:10;;;;;;;6.27;2.60;;;-7.90;97.20;;;;;;5030570;28;20041;-75
2021/12/26 00:20:37;;;;;;;6.60;2.50;;;-8.00;97.20;;;;;;5030693;28;20037;-72
2021/12/26 00:23:03;;;;;;;5.47;2.40;;;-7.90;95.30;;;;;;5030304;28;20087;-75
2021/12/26 00:25:29;;;;;;;6.93;2.90;;;-7.90;94.40;;;;;;5014322;28;20459;-72
2021/12/26 00:27:56;;;;;;;8.27;2.63;;;-7.90;91.70;;;;;;5050638;28;20072;-75
2021/12/26 00:30:22;;;;;;;8.07;2.97;;;-8.00;88.90;;;;;;5034844;28;20091;-72
2021/12/26 00:32:49;;;;;;;11.60;3.23;;;-8.00;87.70;;;;;;5034476;28;20041;-75
2021/12/26 00:35:17;;;;;;;4.77;2.13;;;-7.90;86.70;;;;;;5051373;28;20037;-75
2021/12/26 00:37:44;;;;;;;6.40;2.73;;;-7.90;88.60;;;;;;5034457;28;20041;-72
2021/12/26 00:40:12;;;;;;;14.10;3.17;;;-7.90;86.10;;;;;;5034120;28;20041;-75
2021/12/26 00:42:37;;;;;;;7.13;3.20;;;-7.90;86.10;;;;;;5034251;28;20503;-76
2021/12/26 00:45:05;;;;;;;7.33;2.40;;;-8.00;78.50;;;;;;5018208;28;20113;-72
2021/12/26 00:47:32;;;;;;;4.20;2.43;;;-7.90;74.50;;;;;;5050914;28;20141;-72
2021/12/26 00:49:58;;;;;;;5.97;2.40;;;-7.90;74.10;;;;;;5050475;28;20057;-72
2021/12/26 00:52:24;;;;;;;5.23;2.13;;;-7.90;70.20;;;;;;5034349;28;20075;-76
2021/12/26 00:54:50;;;;;;;4.17;2.60;;;-7.80;70.50;;;;;;5050907;28;20084;-75
2021/12/26 00:57:16;;;;;;;7.47;2.07;;;-7.80;62.60;;;;;;5017624;28;20038;-75
2021/12/26 00:59:42;;;;;;;5.60;2.27;;;-7.80;61.50;;;;;;5033617;28;20045;-72
2021/12/26 01:02:07;;;;;;;7.20;1.73;;;-7.80;56.70;;;;;;5051018;28;20116;-72
2021/12/26 01:04:33;;;;;;;4.60;2.30;;;-7.80;55.60;;;;;;5050967;28;20183;-75
2021/12/26 01:07:00;;;;;;;6.43;2.23;;;-7.80;41.50;;;;;;5034479;28;20052;-72
2021/12/26 01:09:28;;;;;;;3.80;1.73;;;-7.80;42.30;;;;;;5033614;28;20155;-76
2021/12/26 01:11:59;;;;;;;5.87;2.57;;;-7.80;41.30;;;;;;5033872;28;20041;-72
2021/12/26 01:14:29;;;;;;;5.63;2.07;;;-7.70;32.50;;;;;;5016910;28;20076;-76
2021/12/26 01:17:06;;;;;;;4.67;2.07;;;-7.70;18.80;;;;;;5050361;28;20042;-72
2021/12/26 01:19:41;;;;;;;8.17;1.90;;;-7.70;21.60;;;;;;5033817;28;20229;-76
2021/12/26 01:22:07;;;;;;;4.60;1.87;;;-7.70;5.20;;;;;;5050168;28;20041;-72
2021/12/26 01:24:33;;;;;;;5.17;1.73;;;-7.70;1.00;;;;;;5033777;28;20560;-76
2021/12/26 01:26:58;;;;;;;2.80;1.43;;;-7.60;1.00;;;;;;5033472;28;20518;-72
2021/12/26 01:29:24;;;;;;;3.37;1.63;;;-7.60;1.00;;;;;;5033574;28;20075;-72
2021/12/26 01:31:50;;;;;;;4.53;2.00;;;-7.60;1.00;;;;;;5033679;28;20037;-76
2021/12/26 01:34:15;;;;;;;4.67;1.57;;;-7.60;1.00;;;;;;5017298;28;20046;-76
2021/12/26 01:36:41;;;;;;;5.43;1.77;;;-7.60;1.00;;;;;;5033693;28;20060;-75
2021/12/26 01:39:10;;;;;;;3.97;1.63;;;-7.70;1.00;;;;;;5023867;28;20076;-76
2021/12/26 01:41:40;;;;;;;3.10;1.53;;;-7.70;1.00;;;;;;5050385;28;20414;-76
2021/12/26 01:44:10;;;;;;;3.97;1.80;;;-7.80;1.00;;;;;;5050484;28;20717;-72
2021/12/26 01:46:37;;;;;;;6.77;2.20;;;-7.90;1.00;;;;;;5033515;28;20087;-76
2021/12/26 01:49:17;;;;;;;5.10;1.57;;;-7.90;1.00;;;;;;5048968;28;20061;-72
2021/12/26 01:51:44;;;;;;;7.00;1.90;;;-8.00;1.00;;;;;;5049901;28;20061;-76
2021/12/26 01:54:13;;;;;;;8.70;2.00;;;-8.10;1.00;;;;;;5017038;28;20045;-72
2021/12/26 01:56:41;;;;;;;4.50;2.07;;;-8.20;1.00;;;;;;5049863;28;20051;-76
2021/12/26 01:59:09;;;;;;;4.87;2.50;;;-8.30;1.00;;;;;;5033284;28;20128;-75
2021/12/26 02:01:35;;;;;;;3.57;1.73;;;-8.30;1.00;;;;;;5032914;28;20061;-72
2021/12/26 02:04:02;;;;;;;4.13;1.67;;;-8.30;1.00;;;;;;5032900;28;20050;-76
2021/12/26 02:06:28;;;;;;;4.03;1.70;;;-8.40;1.00;;;;;;5033353;28;20408;-76
2021/12/26 02:08:54;;;;;;;3.67;1.63;;;-8.40;1.00;;;;;;5032789;28;20037;-72
2021/12/26 02:11:19;;;;;;;6.87;2.07;;;-8.40;1.00;;;;;;5049437;28;20041;-75
2021/12/26 02:13:46;;;;;;;5.37;1.73;;;-8.30;1.00;;;;;;5032182;28;20388;-71
2021/12/26 02:16:12;;;;;;;5.00;1.57;;;-8.30;1.00;;;;;;5032980;28;20049;-71
2021/12/26 02:18:38;;;;;;;4.97;2.00;;;-8.30;1.00;;;;;;5032510;28;20049;-72
2021/12/26 02:23:45;;;;;;;4.28;1.80;;;-8.30;1.00;;;;;;5033213;28;20081;-71
2021/12/26 02:28:38;;;;;;;5.33;2.03;;;-8.30;1.00;;;;;;5048397;28;20100;-76
2021/12/26 02:31:05;;;;;;;6.67;2.10;;;-8.40;1.00;;;;;;5032846;28;20404;-76
2021/12/26 02:33:31;;;;;;;7.13;1.83;;;-8.40;1.00;;;;;;5049334;28;20096;-71
2021/12/26 02:35:57;;;;;;;5.87;2.00;;;-8.40;1.00;;;;;;5048677;28;20041;-76
2021/12/26 02:38:23;;;;;;;7.23;2.20;;;-8.40;1.00;;;;;;5048982;28;20048;-71
2021/12/26 02:40:51;;;;;;;7.10;1.70;;;-8.30;1.00;;;;;;5049237;28;20037;-71
2021/12/26 02:43:21;;;;;;;4.70;1.83;;;-8.30;1.00;;;;;;5048669;28;20041;-76
2021/12/26 02:45:47;;;;;;;6.73;2.27;;;-8.30;1.00;;;;;;5015491;28;20125;-76
2021/12/26 02:48:13;;;;;;;5.10;1.40;;;-8.30;1.00;;;;;;5031163;28;20060;-71
2021/12/26 02:50:40;;;;;;;18.93;1.80;;;-8.30;1.00;;;;;;5031680;28;20049;-71
2021/12/26 02:53:07;;;;;;;6.70;1.67;;;-8.20;1.00;;;;;;5015597;28;20045;-75
2021/12/26 02:55:34;;;;;;;4.20;1.50;;;-8.20;1.00;;;;;;5032236;28;20121;-76
2021/12/26 02:58:04;;;;;;;4.63;1.30;;;-8.20;1.00;;;;;;5032288;28;20492;-71
2021/12/26 03:00:33;;;;;;;6.80;1.77;;;-8.20;1.00;;;;;;5028729;28;20116;-76
2021/12/26 03:03:02;;;;;;;3.73;1.20;;;-8.30;1.00;;;;;;5031412;28;20080;-72
2021/12/26 03:05:35;;;;;;;4.57;1.33;;;-8.20;1.00;;;;;;5032085;28;20420;-71
2021/12/26 03:08:00;;;;;;;2.92;1.27;;;-8.20;1.00;;;;;;5048571;28;20080;-76
2021/12/26 03:10:27;;;;;;;3.30;1.40;;;-8.10;1.00;;;;;;5048157;28;20079;-76
2021/12/26 03:12:58;;;;;;;3.87;1.20;;;-8.10;1.00;;;;;;4999102;28;20045;-71
2021/12/26 03:15:26;;;;;;;4.40;1.50;;;-8.00;1.00;;;;;;5031305;28;20056;-71
2021/12/26 03:17:52;;;;;;;5.63;1.27;;;-8.00;1.00;;;;;;5031162;28;20057;-71
2021/12/26 03:20:22;;;;;;;4.60;1.80;;;-8.00;1.00;;;;;;5031783;28;20045;-71
2021/12/26 03:22:47;;;;;;;3.87;1.17;;;-7.90;1.00;;;;;;5031423;28;20038;-76
2021/12/26 03:25:16;;;;;;;3.90;1.43;;;-7.90;1.00;;;;;;5048451;28;20370;-76
2021/12/26 03:27:42;;;;;;;5.20;1.60;;;-7.90;1.00;;;;;;5031930;28;20045;-71
2021/12/26 03:30:10;;;;;;;4.37;1.50;;;-7.90;1.00;;;;;;5047522;28;20527;-71
2021/12/26 03:32:36;;;;;;;3.93;1.33;;;-7.90;1.00;;;;;;5047924;28;20049;-76
2021/12/26 03:35:02;;;;;;;4.43;1.20;;;-7.80;1.00;;;;;;4998933;28;20514;-76
2021/12/26 03:37:28;;;;;;;4.03;1.13;;;-7.80;1.00;;;;;;5015420;28;20428;-77
2021/12/26 03:39:55;;;;;;;2.37;1.20;;;-7.80;1.00;;;;;;5015334;28;20490;-76
2021/12/26 03:42:21;;;;;;;5.57;1.33;;;-7.80;1.00;;;;;;5031498;28;20134;-77
2021/12/26 03:44:51;;;;;;;3.77;1.10;;;-7.80;1.00;;;;;;5015028;28;20045;-71
2021/12/26 03:47:17;;;;;;;3.20;1.20;;;-7.70;1.00;;;;;;5031014;28;20044;-77
2021/12/26 03:49:43;;;;;;;3.53;1.20;;;-7.70;1.00;;;;;;5014315;28;20049;-76
2021/12/26 03:52:09;;;;;;;2.57;0.90;;;-7.70;1.00;;;;;;5031008;28;20045;-76
2021/12/26 03:54:35;;;;;;;3.87;1.37;;;-7.70;1.00;;;;;;5030836;28;20550;-76
2021/12/26 03:57:01;;;;;;;2.33;0.80;;;-7.70;1.00;;;;;;5014804;28;20042;-76
2021/12/26 03:59:27;;;;;;;3.00;1.30;;;-7.70;1.00;;;;;;4997978;28;20099;-76
2021/12/26 04:01:54;;;;;;;3.13;1.17;;;-7.70;1.00;;;;;;5047571;28;20072;-71
2021/12/26 04:04:20;;;;;;;3.23;1.37;;;-7.60;1.00;;;;;;5030774;28;20053;-76
2021/12/26 04:06:46;;;;;;;6.30;1.80;;;-7.60;1.00;;;;;;5031112;28;20042;-72
2021/12/26 04:09:13;;;;;;;3.60;1.30;;;-7.70;1.00;;;;;;5047092;28;20068;-76
2021/12/26 04:11:41;;;;;;;3.87;1.00;;;-7.60;1.00;;;;;;5030987;28;20037;-75
2021/12/26 04:14:08;;;;;;;2.57;1.00;;;-7.60;1.00;;;;;;5030789;28;20094;-76
2021/12/26 04:16:34;;;;;;;3.73;1.43;;;-7.60;1.00;;;;;;5046973;28;20041;-71
2021/12/26 04:18:59;;;;;;;4.50;1.43;;;-7.60;1.00;;;;;;5030858;28;20404;-71
2021/12/26 04:21:25;;;;;;;2.50;0.97;;;-7.60;1.00;;;;;;5047395;28;20045;-76
2021/12/26 04:23:51;;;;;;;2.40;1.20;;;-7.60;1.00;;;;;;5014933;28;20056;-72
2021/12/26 04:26:17;;;;;;;2.83;1.00;;;-7.60;1.00;;;;;;5030546;28;20090;-76
2021/12/26 04:28:43;;;;;;;3.20;1.20;;;-7.70;1.00;;;;;;5020136;28;20045;-77
2021/12/26 04:31:08;;;;;;;3.63;1.00;;;-7.60;1.00;;;;;;5030277;28;20046;-71
2021/12/26 04:33:34;;;;;;;1.80;1.00;;;-7.60;1.00;;;;;;5047294;28;20042;-77
2021/12/26 04:36:00;;;;;;;3.23;1.00;;;-7.70;1.00;;;;;;5030116;28;20045;-76
2021/12/26 04:38:26;;;;;;;3.17;1.10;;;-7.70;1.00;;;;;;5014300;28;20514;-76
2021/12/26 04:40:52;;;;;;;3.83;1.30;;;-7.80;1.00;;;;;;5014143;28;20050;-72
2021/12/26 04:43:23;;;;;;;3.73;1.40;;;-7.80;1.00;;;;;;5046768;28;20491;-76
2021/12/26 04:45:49;;;;;;;2.33;1.10;;;-7.90;1.00;;;;;;5030134;28;20129;-71
2021/12/26 04:48:15;;;;;;;2.90;1.03;;;-8.00;1.00;;;;;;5047156;28;20128;-71
2021/12/26 04:50:41;;;;;;;3.53;0.93;;;-8.00;1.00;;;;;;5014163;28;20042;-76
2021/12/26 04:53:08;;;;;;;2.33;1.23;;;-8.00;1.00;;;;;;5030301;28;20124;-70
2021/12/26 04:55:33;;;;;;;4.07;1.10;;;-8.00;1.00;;;;;;5030369;28;20045;-71
2021/12/26 04:58:00;;;;;;;4.50;1.30;;;-7.90;1.00;;;;;;5047147;28;20054;-76
2021/12/26 05:00:29;;;;;;;4.07;1.30;;;-7.90;1.00;;;;;;5029907;28;20061;-76
2021/12/26 05:02:56;;;;;;;3.73;0.97;;;-7.90;1.00;;;;;;5030247;28;20161;-76
2021/12/26 05:05:22;;;;;;;3.97;1.00;;;-7.90;1.00;;;;;;5030166;28;20087;-70
2021/12/26 05:07:49;;;;;;;4.93;1.53;;;-7.90;1.00;;;;;;5030336;28;20492;-71
2021/12/26 05:10:18;;;;;;;3.00;1.10;;;-7.90;1.00;;;;;;5013866;28;20404;-71
2021/12/26 05:12:44;;;;;;;2.90;1.17;;;-7.90;1.00;;;;;;5048848;28;20381;-71
2021/12/26 05:15:12;;;;;;;3.00;1.00;;;-7.90;1.00;;;;;;5050646;28;20080;-77
2021/12/26 05:17:40;;;;;;;2.87;1.20;;;-7.80;1.00;;;;;;5033974;28;20511;-77
2021/12/26 05:20:07;;;;;;;4.33;1.77;;;-7.80;1.00;;;;;;5016946;28;20543;-77
2021/12/26 05:22:33;;;;;;;2.13;1.07;;;-7.80;1.00;;;;;;5017306;28;20040;-71
2021/12/26 05:24:59;;;;;;;4.07;1.33;;;-7.80;1.00;;;;;;5033751;28;20049;-71
2021/12/26 05:27:25;;;;;;;2.87;1.10;;;-7.90;1.00;;;;;;5033922;28;20419;-76
2021/12/26 05:29:50;;;;;;;2.73;0.80;;;-7.90;1.00;;;;;;5033592;28;20060;-77
2021/12/26 05:32:16;;;;;;;2.93;1.10;;;-7.80;1.00;;;;;;5050479;28;20042;-75
2021/12/26 05:34:42;;;;;;;2.17;0.90;;;-7.80;1.00;;;;;;5034149;28;20037;-71
2021/12/26 05:37:08;;;;;;;3.77;1.10;;;-7.80;1.00;;;;;;5049773;28;20051;-77
2021/12/26 05:39:33;;;;;;;1.03;0.70;;;-7.80;1.00;;;;;;5016973;28;20137;-77
2021/12/26 05:41:59;;;;;;;1.60;0.80;;;-7.90;1.00;;;;;;5050462;28;20143;-76
2021/12/26 05:44:26;;;;;;;5.83;1.77;;;-7.90;1.00;;;;;;5049758;28;20330;-70
2021/12/26 05:46:51;;;;;;;2.03;0.90;;;-8.10;1.00;;;;;;5049568;28;20088;-70
2021/12/26 05:49:17;;;;;;;4.67;1.30;;;-8.20;1.00;;;;;;5033298;28;20461;-70
2021/12/26 05:51:43;;;;;;;4.73;1.27;;;-8.30;1.00;;;;;;5016455;28;20111;-70
2021/12/26 05:54:09;;;;;;;1.60;0.90;;;-8.30;1.00;;;;;;5033221;28;20041;-70
2021/12/26 05:56:35;;;;;;;2.77;1.10;;;-8.30;1.00;;;;;;5049964;28;20037;-70
2021/12/26 05:59:02;;;;;;;3.77;1.37;;;-8.30;1.00;;;;;;5049483;28;20060;-77
2021/12/26 06:01:28;;;;;;;2.70;0.90;;;-8.20;1.00;;;;;;4999711;28;20073;-77
2021/12/26 06:03:53;;;;;;;4.07;1.40;;;-8.10;1.00;;;;;;5016414;28;20091;-71
2021/12/26 06:06:19;;;;;;;3.00;1.53;;;-8.10;1.00;;;;;;5033151;28;20496;-71
2021/12/26 06:08:45;;;;;;;5.97;1.70;;;-8.10;1.00;;;;;;5032967;28;20400;-70
2021/12/26 06:11:10;;;;;;;4.57;1.23;;;-8.00;1.00;;;;;;5049232;28;20439;-70
2021/12/26 06:13:36;;;;;;;4.07;1.40;;;-8.10;1.00;;;;;;5049262;28;20056;-71
2021/12/26 06:16:02;;;;;;;4.00;1.03;;;-8.00;1.00;;;;;;5032830;28;20045;-70
2021/12/26 06:18:28;;;;;;;2.83;1.37;;;-8.00;1.00;;;;;;5049465;28;20056;-76
2021/12/26 06:20:53;;;;;;;2.60;1.20;;;-8.00;1.00;;;;;;5048827;28;20124;-71
2021/12/26 06:23:19;;;;;;;5.50;1.37;;;-8.00;1.00;;;;;;5048888;28;20049;-76
2021/12/26 06:25:45;;;;;;;2.07;1.30;;;-8.00;1.00;;;;;;5015355;28;20103;-77
2021/12/26 06:28:11;;;;;;;7.63;1.43;;;-8.00;1.00;;;;;;5032550;28;20106;-77
2021/12/26 06:30:36;;;;;;;3.17;1.30;;;-7.90;1.00;;;;;;5032218;28;20044;-76
2021/12/26 06:33:03;;;;;;;2.67;1.20;;;-7.80;1.00;;;;;;5049163;28;20519;-77
2021/12/26 06:35:28;;;;;;;4.80;1.50;;;-7.80;1.00;;;;;;5032234;28;20041;-76
2021/12/26 06:37:54;;;;;;;4.00;1.40;;;-7.80;1.00;;;;;;5032589;28;20537;-77
2021/12/26 06:40:20;;;;;;;4.13;1.10;;;-7.90;1.00;;;;;;5032636;28;20442;-77
2021/12/26 06:42:48;;;;;;;2.17;1.00;;;-7.90;1.00;;;;;;5015595;28;20049;-77
2021/12/26 06:45:17;;;;;;;3.50;1.30;;;-7.90;1.00;;;;;;5049117;28;20427;-77
2021/12/26 06:47:48;;;;;;;3.57;1.53;;;-8.00;1.00;;;;;;5032532;28;20048;-70
2021/12/26 06:50:15;;;;;;;2.70;1.27;;;-8.00;1.00;;;;;;5032127;28;20511;-77
2021/12/26 06:52:42;;;;;;;3.13;1.27;;;-7.90;1.00;;;;;;5032291;28;20495;-71
2021/12/26 06:55:09;;;;;;;3.73;1.47;;;-7.90;1.00;;;;;;5048802;28;20053;-71
2021/12/26 06:57:35;;;;;;;2.80;1.50;;;-7.90;1.00;;;;;;5048632;28;20041;-70
2021/12/26 07:00:03;;;;;;;5.00;2.03;;;-7.90;1.00;;;;;;5032415;28;20050;-77
2021/12/26 07:02:29;;;;;;;7.60;2.43;;;-7.90;1.00;;;;;;5015675;28;20068;-77
2021/12/26 07:04:54;;;;;;;10.30;2.63;;;-8.00;1.00;;;;;;4999601;28;20038;-70
2021/12/26 07:07:20;;;;;;;9.33;2.23;;;-7.90;1.00;;;;;;5031531;28;20037;-77
2021/12/26 07:09:46;;;;;;;4.20;1.17;;;-7.90;1.00;;;;;;5032351;28;20045;-77
2021/12/26 07:12:13;;;;;;;3.00;1.50;;;-7.90;1.00;;;;;;5014926;28;20045;-77
2021/12/26 07:14:40;;;;;;;6.27;1.67;;;-7.90;1.00;;;;;;5015573;28;20037;-75
2021/12/26 07:17:08;;;;;;;5.43;1.47;;;-7.80;1.00;;;;;;5015025;28;20045;-71
2021/12/26 07:19:34;;;;;;;3.40;1.27;;;-7.80;1.00;;;;;;5031759;28;20041;-71
2021/12/26 07:21:59;;;;;;;3.43;1.90;;;-7.80;1.00;;;;;;5048446;28;20067;-77
2021/12/26 07:24:25;;;;;;;2.63;1.67;;;-7.80;1.00;;;;;;5032259;28;20091;-71
2021/12/26 07:26:50;;;;;;;3.50;1.60;;;-7.80;1.00;;;;;;5014777;28;20240;-77
2021/12/26 07:29:16;;;;;;;4.53;1.57;;;-7.80;1.00;;;;;;5030978;28;20041;-77
2021/12/26 07:31:42;;;;;;;3.10;1.50;;;-7.80;1.00;;;;;;5031406;28;20047;-70
2021/12/26 07:34:08;;;;;;;3.87;1.50;;;-7.90;1.00;;;;;;5015522;28;20498;-77
2021/12/26 07:36:33;;;;;;;6.10;1.70;;;-7.90;1.00;;;;;;5031182;28;20627;-77
2021/12/26 07:38:59;;;;;;;5.60;1.77;;;-7.90;1.00;;;;;;5031160;28;20053;-70
2021/12/26 07:41:25;;;;;;;5.70;1.80;;;-8.00;1.00;;;;;;5047454;28;20439;-70
2021/12/26 07:43:50;;;;;;;5.00;1.57;;;-8.00;1.00;;;;;;5031189;28;20117;-71
2021/12/26 07:46:16;;;;;;;3.67;1.70;;;-8.00;1.00;;;;;;5031108;28;20073;-73
2021/12/26 07:48:43;;;;;;;5.03;2.30;;;-8.00;1.00;;;;;;5047336;28;20056;-77
2021/12/26 07:51:08;;;;;;;8.77;2.73;;;-8.00;1.00;;;;;;5014741;28;20073;-77
2021/12/26 07:53:34;;;;;;;3.70;1.70;;;-8.00;1.00;;;;;;5015020;28;20447;-77
2021/12/26 07:56:00;;;;;;;4.20;1.90;;;-8.00;1.00;;;;;;5047591;28;20128;-77
2021/12/26 07:58:26;;;;;;;5.47;2.20;;;-8.00;1.00;;;;;;5030823;28;20049;-76
2021/12/26 08:00:52;;;;;;;2.80;1.77;;;-7.90;1.00;;;;;;5030644;28;20049;-70
2021/12/26 08:03:18;;;;;;;2.83;1.60;;;-7.90;1.00;;;;;;5031392;28;20075;-77
2021/12/26 08:05:44;;;;;;;3.23;1.63;;;-7.80;1.00;;;;;;5014532;28;20125;-77
2021/12/26 08:08:10;;;;;;;4.93;1.70;;;-7.40;1.00;;;;;;5030415;28;20042;-77
2021/12/26 08:10:35;;;;;;;4.23;1.70;;;-7.80;1.00;;;;;;5030951;28;20041;-70
2021/12/26 08:13:01;;;;;;;6.03;2.30;;;-7.80;1.00;;;;;;5047832;28;20045;-70
2021/12/26 08:15:27;;;;;;;4.17;1.97;;;-7.80;1.00;;;;;;5031166;28;20103;-76
2021/12/26 08:17:52;;;;;;;6.20;2.43;;;-7.70;1.00;;;;;;5047153;28;20045;-70
2021/12/26 08:20:18;;;;;;;3.20;1.80;;;-7.70;1.00;;;;;;5014572;28;20041;-77
2021/12/26 08:22:44;;;;;;;3.17;1.83;;;-7.60;1.00;;;;;;5047668;28;20403;-72
2021/12/26 08:25:10;;;;;;;4.00;2.07;;;-7.60;1.00;;;;;;4998081;28;20042;-77
2021/12/26 08:27:36;;;;;;;4.97;2.30;;;-7.50;1.00;;;;;;5047454;28;20128;-77
2021/12/26 08:30:03;;;;;;;5.53;2.00;;;-7.50;1.00;;;;;;5030905;28;20137;-77
2021/12/26 08:32:31;;;;;;;6.37;2.27;;;-7.40;1.00;;;;;;4998131;28;20042;-77
2021/12/26 08:34:59;;;;;;;4.83;2.00;;;-7.40;1.00;;;;;;5015176;28;20060;-71
2021/12/26 08:37:26;;;;;;;5.03;2.20;;;-7.30;1.00;;;;;;5031444;28;20123;-71
2021/12/26 08:39:52;;;;;;;5.27;2.23;;;-7.20;1.00;;;;;;5014904;28;20042;-76
2021/12/26 08:42:18;;;;;;;4.80;2.50;;;-7.10;1.00;;;;;;5031113;28;20045;-77
2021/12/26 08:44:44;;;;;;;5.20;2.33;;;-7.00;1.00;;;;;;5015063;28;20038;-71
2021/12/26 08:47:11;;;;;;;7.87;2.40;;;-6.90;1.00;;;;;;5032017;28;20052;-77
2021/12/26 08:49:38;;;;;;;4.93;2.20;;;-6.90;1.00;;;;;;5018409;28;20546;-77
2021/12/26 08:52:06;;;;;;;3.80;2.40;;;-6.80;1.00;;;;;;5035114;28;20089;-71
2021/12/26 08:54:33;;;;;;;4.63;2.30;;;-6.70;1.00;;;;;;5035321;28;20505;-71
2021/12/26 08:57:00;;;;;;;6.07;2.53;;;-6.70;1.00;;;;;;5018844;28;20448;-71
2021/12/26 08:59:30;;;;;;;3.93;2.00;;;-6.70;1.00;;;;;;5034786;28;20128;-71
2021/12/26 09:01:57;;;;;;;4.00;2.23;;;-6.60;1.00;;;;;;5035166;28;20630;-71
2021/12/26 09:04:23;;;;;;;6.20;2.53;;;-6.60;1.00;;;;;;5034810;28;20042;-77
2021/12/26 09:06:48;;;;;;;3.63;2.27;;;-6.50;1.00;;;;;;5034975;28;20052;-77
2021/12/26 09:09:14;;;;;;;5.03;2.40;;;-6.50;1.00;;;;;;5034667;28;20072;-77
2021/12/26 09:11:40;;;;;;;6.97;3.10;;;-6.40;1.00;;;;;;5018609;28;20079;-74
2021/12/26 09:14:05;;;;;;;6.57;3.30;;;-6.40;1.00;;;;;;5035021;28;20048;-77
2021/12/26 09:16:33;;;;;;;4.87;2.93;;;-6.20;1.00;;;;;;5033769;28;20045;-71
2021/12/26 09:19:01;;;;;;;4.10;2.73;;;-6.30;1.00;;;;;;5034001;28;20057;-71
2021/12/26 09:21:27;;;;;;;5.87;2.87;;;-6.20;1.00;;;;;;5034297;28;20140;-71
2021/12/26 09:23:53;;;;;;;5.10;2.30;;;-6.20;1.00;;;;;;5017788;28;20132;-71
2021/12/26 09:26:19;;;;;;;4.30;2.30;;;-6.10;1.00;;;;;;5034428;28;20492;-71
2021/12/26 09:28:44;;;;;;;6.23;2.53;;;-6.10;1.00;;;;;;5034422;28;20530;-72
2021/12/26 09:31:10;;;;;;;4.13;2.50;;;-6.00;1.00;;;;;;5018272;28;20042;-76
2021/12/26 09:33:36;;;;;;;6.37;2.90;;;-5.90;1.00;;;;;;5034221;28;20045;-78
2021/12/26 09:36:02;;;;;;;4.70;2.80;;;-5.90;1.00;;;;;;5034292;28;20068;-76
2021/12/26 09:38:28;;;;;;;4.30;2.43;;;-5.80;99.90;;;;;;5034070;28;20045;-78
2021/12/26 09:40:55;;;;;;;6.93;3.20;;;-5.80;1.00;;;;;;5017850;28;20045;-71
2021/12/26 09:43:21;;;;;;;4.00;2.27;;;-5.70;1.00;;;;;;5034138;28;20120;-78
2021/12/26 09:45:47;;;;;;;4.63;2.43;;;-5.60;99.90;;;;;;5034615;28;20403;-78
2021/12/26 09:48:13;;;;;;;7.60;2.37;;;-5.60;1.00;;;;;;5017435;28;20136;-71
2021/12/26 09:50:39;;;;;;;6.13;2.50;;;-5.50;1.00;;;;;;5033428;28;20053;-79
2021/12/26 09:53:05;;;;;;;7.30;2.67;;;-5.50;1.00;;;;;;5033766;28;20061;-72
2021/12/26 09:55:31;;;;;;;5.10;2.50;;;-5.40;1.00;;;;;;5035261;28;20484;-72
2021/12/26 09:57:57;;;;;;;4.60;2.40;;;-5.40;1.00;;;;;;5033628;28;20057;-71
2021/12/26 10:00:28;;;;;;;5.13;2.63;;;-5.20;1.00;;;;;;5033838;28;20046;-78
2021/12/26 10:03:15;;;;;;;5.43;2.90;;;-5.20;1.00;;;;;;5033964;28;20172;-71
2021/12/26 10:06:06;;;;;;;4.87;2.50;;;-5.10;99.90;;;;;;5017701;28;20069;-78
2021/12/26 10:08:34;;;;;;;6.40;3.20;;;-4.90;99.90;;;;;;5017261;28;20052;-76
2021/12/26 10:11:10;;;;;;;4.30;2.53;;;-4.90;99.90;;;;;;5017162;28;20073;-79
2021/12/26 10:13:48;;;;;;;5.50;2.40;;;-4.80;99.90;;;;;;5033892;28;20518;-79
2021/12/26 10:16:16;;;;;;;5.00;2.10;;;-4.70;99.90;;;;;;5017008;28;20041;-71
2021/12/26 10:18:43;;;;;;;4.60;2.30;;;-4.60;99.90;;;;;;5033556;28;20053;-71
2021/12/26 10:21:48;;;;;;;6.00;2.60;;;-4.50;99.90;;;;;;5017018;28;20045;-78
2021/12/26 10:24:30;;;;;;;6.17;2.20;;;-4.40;99.90;;;;;;5013138;28;20053;-78
2021/12/26 10:27:01;;;;;;;5.03;2.20;;;-4.40;99.90;;;;;;5033479;28;20045;-79
2021/12/26 10:29:34;;;;;;;6.50;2.93;;;-4.30;99.90;;;;;;5017112;28;20037;-71
2021/12/26 10:32:12;;;;;;;6.73;2.63;;;-4.20;1.00;;;;;;5033245;28;20045;-71
2021/12/26 10:34:40;;;;;;;2.83;2.10;;;-4.10;1.00;;;;;;5033117;28;20033;-79
2021/12/26 10:37:18;;;;;;;5.60;2.90;;;-4.10;99.90;;;;;;5033031;28;20052;-79
2021/12/26 10:39:49;;;;;;;4.07;1.83;;;-4.00;99.90;;;;;;5033181;28;20446;-72
2021/12/26 10:42:22;;;;;;;4.57;2.37;;;-3.90;99.90;;;;;;5032189;28;20116;-79
2021/12/26 10:44:51;;;;;;;7.93;2.90;;;-3.80;99.90;;;;;;5032280;28;20033;-72
2021/12/26 10:47:22;;;;;;;4.63;2.50;;;-3.80;99.90;;;;;;5033439;28;20492;-72
2021/12/26 10:50:11;;;;;;;3.53;2.03;;;-3.70;99.90;;;;;;5048825;28;20053;-80
2021/12/26 10:52:48;;;;;;;5.80;2.57;;;-3.60;1.00;;;;;;5048334;28;20121;-72
2021/12/26 10:55:20;;;;;;;4.97;2.47;;;-3.50;1.00;;;;;;5037445;28;20045;-79
2021/12/26 10:57:48;;;;;;;5.63;2.60;;;-3.40;1.00;;;;;;5030609;28;20420;-72
2021/12/26 11:00:14;;;;;;;6.67;3.00;;;-3.30;1.00;;;;;;5047373;28;20076;-72
2021/12/26 11:02:52;;;;;;;7.07;2.40;;;-3.30;1.00;;;;;;5032035;28;20073;-72
2021/12/26 11:05:28;;;;;;;5.67;2.47;;;-3.20;1.00;;;;;;5032488;28;20045;-72
2021/12/26 11:08:00;;;;;;;4.43;2.27;;;-2.30;99.90;;;;;;5014824;28;20121;-72
2021/12/26 11:10:39;;;;;;;4.63;2.23;;;-3.00;99.90;;;;;;5014699;28;20393;-72
2021/12/26 11:13:07;;;;;;;7.37;2.23;;;-2.90;1.00;;;;;;5031463;28;20076;-72
2021/12/26 11:15:38;;;;;;;5.00;2.40;;;-2.90;1.00;;;;;;5015328;28;20116;-72
2021/12/26 11:18:08;;;;;;;3.13;2.00;;;-2.80;1.00;;;;;;5031142;28;20041;-76
2021/12/26 11:20:37;;;;;;;4.23;2.03;;;-2.70;99.90;;;;;;5048046;28;20048;-79
2021/12/26 11:23:09;;;;;;;6.27;2.53;;;-2.70;99.90;;;;;;5030894;28;20507;-71
2021/12/26 11:25:50;;;;;;;5.68;2.17;;;-2.60;99.90;;;;;;5031934;28;20045;-71
2021/12/26 11:28:20;;;;;;;4.77;2.50;;;-2.60;99.90;;;;;;5031422;28;20155;-79
2021/12/26 11:30:46;;;;;;;4.13;2.20;;;-2.60;99.90;;;;;;5012733;28;20037;-78
2021/12/26 11:33:12;;;;;;;5.03;2.37;;;-2.50;99.90;;;;;;5031087;28;20106;-79
2021/12/26 11:35:40;;;;;;;5.30;2.50;;;-2.50;1.00;;;;;;5047878;28;20351;-71
2021/12/26 11:38:12;;;;;;;4.57;1.93;;;-2.50;99.90;;;;;;5031510;28;20186;-79
2021/12/26 11:40:41;;;;;;;6.47;2.30;;;-2.40;99.90;;;;;;5047614;28;20046;-79
2021/12/26 11:43:36;;;;;;;5.57;2.77;;;-2.40;99.90;;;;;;5048197;28;20487;-78
2021/12/26 11:46:20;;;;;;;5.17;2.87;;;-2.30;99.90;;;;;;4977144;28;20064;-71
2021/12/26 11:49:34;;;;;;;5.30;2.27;;;-2.30;99.90;;;;;;5039989;28;20496;-72
2021/12/26 11:52:14;;;;;;;4.82;2.28;;;-2.20;99.90;;;;;;5010802;28;20073;-79
2021/12/26 11:54:56;;;;;;;6.37;2.37;;;-2.10;99.90;;;;;;4999206;28;20172;-71
2021/12/26 11:57:38;;;;;;;3.20;2.17;;;-2.00;99.90;;;;;;5011551;28;20073;-71
2021/12/26 12:00:12;;;;;;;6.57;2.70;;;-2.00;99.90;;;;;;5015083;28;20492;-79
2021/12/26 12:03:00;;;;;;;4.47;2.53;;;-2.00;99.90;;;;;;5031092;28;20049;-78
2021/12/26 12:05:38;;;;;;;4.33;2.00;;;-2.00;99.90;;;;;;5020205;28;20057;-71
2021/12/26 12:08:32;;;;;;;5.37;2.43;;;-1.90;99.90;;;;;;5047474;28;20053;-74
2021/12/26 12:11:02;;;;;;;7.00;2.97;;;-1.90;99.90;;;;;;5028781;28;20053;-79
2021/12/26 12:13:46;;;;;;;4.50;2.27;;;-1.90;99.90;;;;;;5024741;28;20049;-71
2021/12/26 12:16:33;;;;;;;4.50;2.07;;;-1.90;99.90;;;;;;5029640;28;20053;-78
2021/12/26 12:19:10;;;;;;;4.90;2.63;;;-1.80;99.90;;;;;;5030408;28;20053;-79
2021/12/26 12:21:37;;;;;;;5.73;2.43;;;-1.80;99.90;;;;;;5030968;28;20049;-71
2021/12/26 12:24:26;;;;;;;4.67;2.17;;;-1.70;99.90;;;;;;5052441;28;20515;-71
2021/12/26 12:26:59;;;;;;;5.93;2.80;;;-1.70;99.90;;;;;;5035355;28;20053;-79
2021/12/26 12:29:25;;;;;;;4.55;2.30;;;-1.60;99.90;;;;;;5034505;28;20068;-71
2021/12/26 12:32:09;;;;;;;7.27;3.20;;;-1.60;99.90;;;;;;5034668;28;20077;-76
2021/12/26 12:35:06;;;;;;;7.47;2.70;;;-1.00;99.90;;;;;;5034758;28;20045;-71
2021/12/26 12:37:42;;;;;;;4.63;2.57;;;-0.10;99.90;;;;;;5051881;28;20466;-78
2021/12/26 12:40:20;;;;;;;6.37;2.53;;;0.80;99.90;;;;;;5018807;28;20053;-72
2021/12/26 12:43:03;;;;;;;6.10;2.73;;;1.30;99.90;;;;;;5051151;28;20041;-79
2021/12/26 12:45:30;;;;;;;5.60;3.22;;;1.90;99.90;;;;;;5051485;28;20053;-78
2021/12/26 12:48:26;;;;;;;6.60;2.50;;;2.20;99.90;;;;;;5050870;28;20049;-72
2021/12/26 12:51:01;;;;;;;6.20;2.97;;;2.40;99.90;;;;;;5035092;28;20136;-72
2021/12/26 12:53:44;;;;;;;3.93;2.47;;;2.60;99.90;;;;;;5033687;28;20056;-79
2021/12/26 12:56:30;;;;;;;5.85;3.08;;;2.90;99.90;;;;;;5034933;28;20041;-72
2021/12/26 12:59:26;;;;;;;4.73;2.53;;;2.90;99.90;;;;;;5036211;28;20049;-78
2021/12/26 13:01:54;;;;;;;5.17;2.70;;;3.10;99.90;;;;;;5009137;28;20454;-71
2021/12/26 13:04:40;;;;;;;6.85;2.60;;;2.90;99.90;;;;;;5050654;28;20084;-78
2021/12/26 13:07:06;;;;;;;4.25;2.80;;;2.90;99.90;;;;;;5034737;28;20049;-72
2021/12/26 13:09:34;;;;;;;4.67;2.47;;;3.00;99.90;;;;;;5034381;28;20050;-77